createdAt,value
2019-04-28T00:00:51.267Z,2.67
2019-04-28T00:03:21.788Z,3.17
2019-04-28T00:05:51.732Z,3.12
2019-04-28T00:08:21.633Z,3.30
2019-04-28T00:10:53.284Z,3.20
2019-04-28T00:13:24.433Z,4.03
2019-04-28T00:15:55.899Z,3.00
2019-04-28T00:18:25.862Z,4.15
2019-04-28T00:21:15.184Z,3.37
2019-04-28T00:24:13.929Z,3.90
2019-04-28T00:26:52.059Z,3.30
2019-04-28T00:29:21.982Z,4.43
2019-04-28T00:31:51.777Z,4.07
2019-04-28T00:34:21.641Z,4.67
2019-04-28T00:37:13.461Z,3.52
2019-04-28T00:39:43.489Z,4.40
2019-04-28T00:42:13.257Z,4.05
2019-04-28T00:44:43.399Z,4.40
2019-04-28T00:47:13.406Z,4.60
2019-04-28T00:49:46.357Z,5.22
2019-04-28T00:52:17.767Z,4.47
2019-04-28T00:54:48.549Z,4.72
2019-04-28T00:57:21.168Z,4.53
2019-04-28T00:59:57.640Z,5.35
2019-04-28T01:02:41.777Z,5.03
2019-04-28T01:05:12.081Z,4.50
2019-04-28T01:07:42.066Z,5.30
2019-04-28T01:10:12.643Z,4.80
2019-04-28T01:12:42.658Z,4.93
2019-04-28T01:15:39.532Z,4.62
2019-04-28T01:18:21.849Z,4.17
2019-04-28T01:20:51.750Z,5.05
2019-04-28T01:23:21.593Z,4.25
2019-04-28T01:25:51.331Z,3.90
2019-04-28T01:28:21.361Z,4.70
2019-04-28T01:31:05.062Z,4.67
2019-04-28T01:34:03.027Z,4.07
2019-04-28T01:36:33.690Z,4.07
2019-04-28T01:39:04.770Z,4.22
2019-04-28T01:41:36.310Z,4.58
2019-04-28T01:44:06.216Z,4.60
2019-04-28T01:46:35.934Z,4.30
2019-04-28T01:49:06.845Z,3.72
2019-04-28T01:51:36.691Z,3.60
2019-04-28T01:54:06.486Z,3.45
2019-04-28T01:56:36.329Z,4.27
2019-04-28T01:59:07.148Z,4.03
2019-04-28T02:01:37.006Z,4.03
2019-04-28T02:04:06.797Z,3.67
2019-04-28T02:06:36.558Z,3.83
2019-04-28T02:09:09.808Z,3.60
2019-04-28T02:11:41.376Z,3.63
2019-04-28T02:14:11.263Z,2.98
2019-04-28T02:16:41.100Z,2.52
2019-04-28T02:19:10.970Z,3.37
2019-04-28T02:21:53.245Z,3.35
2019-04-28T02:24:30.903Z,3.30
2019-04-28T02:27:01.148Z,3.22
2019-04-28T02:29:31.070Z,4.20
2019-04-28T02:32:02.061Z,3.37
2019-04-28T02:34:32.310Z,3.02
2019-04-28T02:37:05.761Z,2.77
2019-04-28T02:39:35.533Z,3.20
2019-04-28T02:42:05.389Z,2.73
2019-04-28T02:44:35.381Z,2.93
2019-04-28T02:47:05.406Z,2.62
2019-04-28T02:49:54.346Z,3.02
2019-04-28T02:52:41.898Z,2.70
2019-04-28T02:55:11.751Z,3.03
2019-04-28T02:57:41.611Z,2.58
2019-04-28T03:00:11.646Z,2.77
2019-04-28T03:02:41.846Z,2.57
2019-04-28T03:05:11.858Z,2.05
2019-04-28T03:07:41.920Z,2.47
2019-04-28T03:10:13.130Z,2.25
2019-04-28T03:12:42.966Z,2.50
2019-04-28T03:15:12.905Z,2.37
2019-04-28T03:17:42.743Z,2.03
2019-04-28T03:20:12.695Z,2.60
2019-04-28T03:22:42.540Z,2.00
2019-04-28T03:25:20.428Z,2.02
2019-04-28T03:28:12.151Z,2.77
2019-04-28T03:30:54.315Z,2.37
2019-04-28T03:33:26.434Z,3.27
2019-04-28T03:35:57.595Z,2.40
2019-04-28T03:38:27.458Z,2.00
2019-04-28T03:40:57.212Z,3.17
2019-04-28T03:43:26.977Z,2.85
2019-04-28T03:46:03.607Z,2.25
2019-04-28T03:48:33.953Z,2.72
2019-04-28T03:51:03.854Z,2.90
2019-04-28T03:53:33.623Z,2.60
2019-04-28T03:56:03.474Z,2.35
2019-04-28T03:58:33.337Z,2.20
2019-04-28T04:01:03.422Z,2.20
2019-04-28T04:03:33.295Z,2.47
2019-04-28T04:06:02.984Z,2.10
2019-04-28T04:08:32.753Z,2.37
2019-04-28T04:11:11.293Z,3.30
2019-04-28T04:13:45.831Z,2.45
2019-04-28T04:16:31.504Z,2.20
2019-04-28T04:19:01.770Z,2.12
2019-04-28T04:21:31.554Z,2.57
2019-04-28T04:24:02.215Z,2.30
2019-04-28T04:26:33.510Z,2.40
2019-04-28T04:29:03.737Z,1.77
2019-04-28T04:31:33.438Z,2.43
2019-04-28T04:34:03.645Z,3.30
2019-04-28T04:36:33.466Z,2.10
2019-04-28T04:39:03.577Z,2.12
2019-04-28T04:41:34.273Z,1.60
2019-04-28T04:44:04.131Z,1.87
2019-04-28T04:46:33.835Z,1.83
2019-04-28T04:49:04.258Z,2.50
2019-04-28T04:51:33.941Z,2.02
2019-04-28T04:54:03.733Z,3.15
2019-04-28T04:56:33.566Z,2.15
2019-04-28T04:59:03.413Z,2.03
2019-04-28T05:01:45.869Z,2.40
2019-04-28T05:04:24.641Z,2.30
2019-04-28T05:06:54.632Z,2.33
2019-04-28T05:09:24.331Z,2.85
2019-04-28T05:11:54.164Z,2.50
2019-04-28T05:14:23.889Z,1.90
2019-04-28T05:16:53.586Z,1.80
2019-04-28T05:19:23.357Z,2.40
2019-04-28T05:21:53.114Z,2.40
2019-04-28T05:24:41.988Z,2.10
2019-04-28T05:27:11.680Z,1.75
2019-04-28T05:29:41.406Z,2.25
2019-04-28T05:32:11.252Z,3.17
2019-04-28T05:34:46.797Z,2.37
2019-04-28T05:37:12.577Z,2.03
2019-04-28T05:39:42.457Z,2.10
2019-04-28T05:42:12.227Z,2.17
2019-04-28T05:44:41.930Z,1.80
2019-04-28T05:47:11.698Z,2.22
2019-04-28T05:50:07.352Z,2.95
2019-04-28T05:53:01.962Z,5.08
2019-04-28T05:55:50.187Z,5.00
2019-04-28T05:58:35.436Z,5.75
2019-04-28T06:01:16.897Z,3.50
2019-04-28T06:03:47.324Z,2.40
2019-04-28T06:06:17.985Z,2.70
2019-04-28T06:08:56.400Z,2.30
2019-04-28T06:11:30.818Z,1.93
2019-04-28T06:14:01.827Z,1.95
2019-04-28T06:16:31.680Z,2.30
2019-04-28T06:19:01.500Z,2.75
2019-04-28T06:21:32.316Z,2.50
2019-04-28T06:24:02.033Z,2.10
2019-04-28T06:26:31.856Z,3.12
2019-04-28T06:29:01.540Z,2.42
2019-04-28T06:31:31.337Z,2.30
2019-04-28T06:34:01.097Z,2.40
2019-04-28T06:36:30.889Z,2.50
2019-04-28T06:39:00.608Z,2.58
2019-04-28T06:41:31.930Z,2.27
2019-04-28T06:44:01.629Z,2.35
2019-04-28T06:46:32.549Z,2.55
2019-04-28T06:49:02.308Z,2.47
2019-04-28T06:51:32.005Z,2.30
2019-04-28T06:54:01.712Z,2.08
2019-04-28T06:56:31.405Z,2.17
2019-04-28T06:59:01.180Z,2.95
2019-04-28T07:01:30.910Z,2.10
2019-04-28T07:04:00.674Z,2.75
2019-04-28T07:06:30.537Z,2.50
2019-04-28T07:09:00.235Z,2.87
2019-04-28T07:11:29.934Z,2.60
2019-04-28T07:13:59.628Z,3.20
2019-04-28T07:16:29.489Z,2.90
2019-04-28T07:18:59.198Z,2.92
2019-04-28T07:21:57.587Z,3.77
2019-04-28T07:24:29.088Z,3.00
2019-04-28T07:26:58.982Z,2.60
2019-04-28T07:29:28.754Z,3.17
2019-04-28T07:31:59.793Z,3.15
2019-04-28T07:34:29.565Z,3.47
2019-04-28T07:36:59.353Z,2.80
2019-04-28T07:39:29.410Z,3.42
2019-04-28T07:41:59.116Z,3.92
2019-04-28T07:44:28.878Z,3.50
2019-04-28T07:46:58.662Z,3.47
2019-04-28T07:49:28.430Z,4.17
2019-04-28T07:52:06.356Z,4.05
2019-04-28T07:54:36.205Z,3.75
2019-04-28T07:57:06.260Z,3.52
2019-04-28T07:59:35.978Z,3.50
2019-04-28T08:02:05.839Z,3.87
2019-04-28T08:04:36.457Z,3.90
2019-04-28T08:07:06.228Z,3.30
2019-04-28T08:09:36.061Z,2.52
2019-04-28T08:12:06.196Z,1.98
2019-04-28T08:14:36.026Z,1.80
2019-04-28T08:17:05.865Z,1.98
2019-04-28T08:19:35.565Z,1.72
2019-04-28T08:22:05.417Z,1.82
2019-04-28T08:24:35.235Z,1.55
2019-04-28T08:27:05.117Z,1.57
2019-04-28T08:29:35.776Z,1.72
2019-04-28T08:32:22.463Z,1.10
2019-04-28T08:34:52.162Z,1.32
2019-04-28T08:37:21.869Z,1.65
2019-04-28T08:39:51.629Z,1.60
2019-04-28T08:42:21.421Z,1.87
2019-04-28T08:44:51.109Z,1.30
2019-04-28T08:47:20.857Z,1.32
2019-04-28T08:49:51.625Z,1.30
2019-04-28T08:52:21.577Z,1.62
2019-04-28T08:54:51.329Z,2.05
2019-04-28T08:57:21.100Z,1.27
2019-04-28T08:59:50.873Z,1.57
2019-04-28T09:02:20.653Z,1.80
2019-04-28T09:04:50.428Z,1.62
2019-04-28T09:07:20.194Z,1.80
2019-04-28T09:09:49.962Z,1.57
2019-04-28T09:12:19.685Z,2.20
2019-04-28T09:14:49.369Z,1.75
2019-04-28T09:17:19.201Z,2.00
2019-04-28T09:19:48.979Z,1.98
2019-04-28T09:22:18.704Z,1.98
2019-04-28T09:24:48.390Z,2.65
2019-04-28T09:27:18.238Z,1.95
2019-04-28T09:29:47.933Z,3.50
2019-04-28T09:32:17.748Z,2.50
2019-04-28T09:34:47.433Z,2.40
2019-04-28T09:37:17.136Z,2.22
2019-04-28T09:39:54.365Z,2.00
2019-04-28T09:42:42.076Z,1.77
2019-04-28T09:45:17.693Z,2.05
2019-04-28T09:47:47.468Z,1.77
2019-04-28T09:50:17.438Z,2.65
2019-04-28T09:52:48.768Z,2.37
2019-04-28T09:55:18.686Z,2.15
2019-04-28T09:57:48.459Z,2.50
2019-04-28T10:00:18.473Z,2.17
2019-04-28T10:02:48.261Z,2.60
2019-04-28T10:05:18.140Z,2.40
2019-04-28T10:07:47.837Z,3.12
2019-04-28T10:10:17.773Z,3.02
2019-04-28T10:12:47.614Z,3.55
2019-04-28T10:15:17.478Z,3.02
2019-04-28T10:17:47.324Z,3.85
2019-04-28T10:20:18.327Z,3.75
2019-04-28T10:22:48.275Z,4.15
2019-04-28T10:25:20.970Z,4.60
2019-04-28T10:27:49.735Z,4.60
2019-04-28T10:30:19.669Z,4.60
2019-04-28T10:32:49.513Z,4.80
2019-04-28T10:35:19.574Z,4.12
2019-04-28T10:37:50.538Z,4.60
2019-04-28T10:40:35.300Z,5.53
2019-04-28T10:43:05.208Z,5.45
2019-04-28T10:45:45.070Z,6.08
2019-04-28T10:48:15.386Z,5.72
2019-04-28T10:50:45.221Z,5.33
2019-04-28T10:53:15.962Z,5.50
2019-04-28T10:55:45.830Z,5.05
2019-04-28T10:58:15.537Z,6.12
2019-04-28T11:00:45.486Z,5.80
2019-04-28T11:03:16.600Z,6.55
2019-04-28T11:05:46.469Z,5.22
2019-04-28T11:08:33.015Z,3.80
2019-04-28T11:11:09.212Z,3.70
2019-04-28T11:13:38.997Z,2.85
2019-04-28T11:16:09.743Z,3.85
2019-04-28T11:18:40.074Z,3.55
2019-04-28T11:21:09.849Z,2.92
2019-04-28T11:23:39.802Z,2.33
2019-04-28T11:26:09.570Z,2.52
2019-04-28T11:28:39.604Z,3.05
2019-04-28T11:31:09.538Z,2.85
2019-04-28T11:33:48.310Z,2.70
2019-04-28T11:36:19.818Z,3.30
2019-04-28T11:38:49.665Z,3.33
2019-04-28T11:41:19.431Z,2.98
2019-04-28T11:43:49.197Z,2.95
2019-04-28T11:46:20.725Z,2.62
2019-04-28T11:48:50.502Z,2.60
2019-04-28T11:51:20.198Z,2.50
2019-04-28T11:53:50.102Z,2.83
2019-04-28T11:56:19.889Z,3.47
2019-04-28T11:58:49.676Z,3.75
2019-04-28T12:01:20.261Z,3.17
2019-04-28T12:03:52.973Z,3.05
2019-04-28T12:06:22.822Z,2.95
2019-04-28T12:08:55.351Z,3.35
2019-04-28T12:11:31.010Z,2.70
2019-04-28T12:14:20.556Z,3.65
2019-04-28T12:17:09.645Z,2.80
2019-04-28T12:19:46.477Z,2.95
2019-04-28T12:22:16.266Z,6.45
2019-04-28T12:24:45.989Z,4.45
2019-04-28T12:27:15.685Z,4.22
2019-04-28T12:29:45.469Z,3.77
2019-04-28T12:32:15.220Z,4.35
2019-04-28T12:34:45.006Z,4.90
2019-04-28T12:37:14.880Z,3.95
2019-04-28T12:39:44.666Z,5.50
2019-04-28T12:42:14.386Z,4.95
2019-04-28T12:44:44.181Z,5.28
2019-04-28T12:47:13.882Z,5.33
2019-04-28T12:50:08.833Z,5.58
2019-04-28T12:52:41.561Z,5.80
2019-04-28T12:55:11.418Z,5.40
2019-04-28T12:57:41.154Z,5.37
2019-04-28T13:00:33.236Z,5.58
2019-04-28T13:03:34.176Z,6.80
2019-04-28T13:06:06.377Z,5.50
2019-04-28T13:08:36.089Z,5.00
2019-04-28T13:11:05.846Z,5.58
2019-04-28T13:13:35.580Z,5.42
2019-04-28T13:16:05.504Z,5.92
2019-04-28T13:18:35.296Z,5.55
2019-04-28T13:21:05.141Z,5.20
2019-04-28T13:23:35.793Z,5.95
2019-04-28T13:26:05.621Z,5.78
2019-04-28T13:28:36.336Z,6.17
2019-04-28T13:31:07.107Z,5.83
2019-04-28T13:33:36.934Z,6.08
2019-04-28T13:36:14.754Z,6.12
2019-04-28T13:38:38.148Z,6.05
2019-04-28T13:41:08.022Z,5.90
2019-04-28T13:43:38.769Z,6.00
2019-04-28T13:46:08.605Z,5.85
2019-04-28T13:48:38.486Z,6.50
2019-04-28T13:51:08.191Z,5.87
2019-04-28T13:53:37.963Z,5.70
2019-04-28T13:56:07.733Z,6.03
2019-04-28T13:58:44.808Z,4.90
2019-04-28T14:01:33.749Z,5.20
2019-04-28T14:04:21.640Z,5.60
2019-04-28T14:06:54.104Z,5.00
2019-04-28T14:09:23.828Z,5.22
2019-04-28T14:11:53.665Z,5.05
2019-04-28T14:14:23.433Z,5.42
2019-04-28T14:16:53.213Z,5.35
2019-04-28T14:19:23.996Z,4.92
2019-04-28T14:21:53.811Z,5.10
2019-04-28T14:24:23.569Z,5.42
2019-04-28T14:26:53.364Z,5.08
2019-04-28T14:29:23.219Z,4.53
2019-04-28T14:31:52.989Z,4.45
2019-04-28T14:34:22.735Z,5.10
2019-04-28T14:36:52.510Z,4.87
2019-04-28T14:39:22.273Z,4.33
2019-04-28T14:41:52.056Z,5.00
2019-04-28T14:44:21.830Z,4.95
2019-04-28T14:46:51.605Z,4.58
2019-04-28T14:49:21.361Z,4.33
2019-04-28T14:51:51.140Z,4.80
2019-04-28T14:54:21.028Z,4.87
2019-04-28T14:56:50.911Z,5.08
2019-04-28T14:59:20.670Z,5.17
2019-04-28T15:02:10.029Z,4.28
2019-04-28T15:05:00.195Z,4.20
2019-04-28T15:07:54.810Z,4.87
2019-04-28T15:10:36.486Z,4.65
2019-04-28T15:13:06.333Z,4.85
2019-04-28T15:15:36.206Z,4.55
2019-04-28T15:18:07.193Z,5.00
2019-04-28T15:20:37.095Z,3.67
2019-04-28T15:23:07.581Z,3.10
2019-04-28T15:25:37.277Z,2.85
2019-04-28T15:28:07.189Z,3.70
2019-04-28T15:30:37.043Z,3.33
2019-04-28T15:33:06.881Z,3.52
2019-04-28T15:35:38.872Z,4.00
2019-04-28T15:38:08.585Z,3.37
2019-04-28T15:40:38.360Z,3.10
2019-04-28T15:43:08.201Z,2.17
2019-04-28T15:45:37.909Z,2.60
2019-04-28T15:48:07.693Z,2.60
2019-04-28T15:50:37.469Z,3.77
2019-04-28T15:53:07.765Z,2.70
2019-04-28T15:55:47.217Z,3.02
2019-04-28T15:58:29.350Z,2.10
2019-04-28T16:00:59.543Z,2.20
2019-04-28T16:03:29.922Z,2.12
2019-04-28T16:06:00.194Z,1.52
2019-04-28T16:08:30.226Z,1.98
2019-04-28T16:11:00.063Z,2.47
2019-04-28T16:13:29.839Z,1.95
2019-04-28T16:15:59.545Z,2.50
2019-04-28T16:18:29.386Z,1.92
2019-04-28T16:20:59.084Z,2.47
2019-04-28T16:23:28.993Z,1.90
2019-04-28T16:25:58.777Z,2.25
2019-04-28T16:28:28.546Z,2.52
2019-04-28T16:30:58.390Z,2.40
2019-04-28T16:33:29.121Z,3.10
2019-04-28T16:35:58.976Z,4.00
2019-04-28T16:38:29.146Z,4.00
2019-04-28T16:40:58.834Z,3.65
2019-04-28T16:43:28.637Z,4.03
2019-04-28T16:45:58.381Z,4.12
2019-04-28T16:48:28.232Z,3.67
2019-04-28T16:50:58.000Z,3.80
2019-04-28T16:53:27.689Z,3.55
2019-04-28T16:56:19.635Z,3.98
2019-04-28T16:59:07.156Z,3.92
2019-04-28T17:01:46.449Z,3.80
2019-04-28T17:04:16.365Z,4.17
2019-04-28T17:06:46.069Z,3.47
2019-04-28T17:09:17.640Z,4.20
2019-04-28T17:11:47.429Z,3.80
2019-04-28T17:14:17.134Z,3.75
2019-04-28T17:16:47.607Z,3.42
2019-04-28T17:19:17.298Z,4.08
2019-04-28T17:21:47.158Z,3.52
2019-04-28T17:24:16.844Z,4.28
2019-04-28T17:26:46.617Z,4.28
2019-04-28T17:29:16.382Z,4.05
2019-04-28T17:31:46.233Z,4.50
2019-04-28T17:34:16.102Z,4.03
2019-04-28T17:36:45.904Z,4.28
2019-04-28T17:39:18.917Z,4.05
2019-04-28T17:41:48.765Z,4.60
2019-04-28T17:44:18.653Z,4.37
2019-04-28T17:46:48.597Z,4.17
2019-04-28T17:49:21.402Z,4.25
2019-04-28T17:51:51.186Z,4.30
2019-04-28T17:54:21.018Z,3.72
2019-04-28T17:56:50.781Z,4.62
2019-04-28T17:59:20.621Z,4.47
2019-04-28T18:02:12.373Z,3.80
2019-04-28T18:05:03.734Z,3.70
2019-04-28T18:07:35.920Z,4.15
2019-04-28T18:10:07.610Z,4.03
2019-04-28T18:12:37.476Z,4.67
2019-04-28T18:15:27.251Z,4.12
2019-04-28T18:18:15.593Z,4.60
2019-04-28T18:20:45.508Z,3.77
2019-04-28T18:23:15.287Z,4.20
2019-04-28T18:25:45.061Z,3.83
2019-04-28T18:28:14.864Z,4.92
2019-04-28T18:30:51.555Z,4.25
2019-04-28T18:33:39.633Z,4.67
2019-04-28T18:36:14.883Z,4.28
2019-04-28T18:38:53.560Z,5.70
2019-04-28T18:41:41.447Z,4.42
2019-04-28T18:44:16.361Z,4.42
2019-04-28T18:46:46.196Z,3.87
2019-04-28T18:49:15.900Z,4.85
2019-04-28T18:51:45.761Z,4.55
2019-04-28T18:54:15.603Z,4.42
2019-04-28T18:56:46.847Z,4.20
2019-04-28T18:59:16.625Z,4.30
2019-04-28T19:02:01.818Z,4.53
2019-04-28T19:04:31.657Z,3.87
2019-04-28T19:07:05.225Z,4.70
2019-04-28T19:09:46.023Z,3.75
2019-04-28T19:12:22.607Z,4.47
2019-04-28T19:15:07.892Z,3.65
2019-04-28T19:17:47.057Z,5.40
2019-04-28T19:20:16.865Z,4.62
2019-04-28T19:22:47.575Z,4.53
2019-04-28T19:25:17.277Z,4.22
2019-04-28T19:27:46.980Z,3.98
2019-04-28T19:30:16.837Z,4.42
2019-04-28T19:32:46.545Z,4.95
2019-04-28T19:35:16.457Z,4.15
2019-04-28T19:37:46.313Z,4.95
2019-04-28T19:40:16.225Z,4.33
2019-04-28T19:42:47.633Z,4.33
2019-04-28T19:45:19.041Z,4.80
2019-04-28T19:47:48.873Z,4.40
2019-04-28T19:50:18.628Z,4.65
2019-04-28T19:52:48.459Z,4.62
2019-04-28T19:55:22.492Z,4.65
2019-04-28T19:58:05.738Z,3.98
2019-04-28T20:00:40.794Z,4.60
2019-04-28T20:03:12.268Z,4.53
2019-04-28T20:05:42.261Z,4.55
2019-04-28T20:08:12.115Z,5.75
2019-04-28T20:10:41.906Z,6.85
2019-04-28T20:13:11.750Z,6.20
2019-04-28T20:15:41.576Z,5.72
2019-04-28T20:18:11.349Z,6.03
2019-04-28T20:20:41.140Z,7.03
2019-04-28T20:23:11.208Z,5.80
2019-04-28T20:25:41.053Z,4.85
2019-04-28T20:28:10.834Z,6.12
2019-04-28T20:30:40.672Z,5.40
2019-04-28T20:33:10.520Z,5.78
2019-04-28T20:35:45.121Z,5.97
2019-04-28T20:38:27.718Z,5.03
2019-04-28T20:41:11.994Z,5.15
2019-04-28T20:43:41.793Z,5.65
2019-04-28T20:46:11.562Z,6.37
2019-04-28T20:48:41.391Z,5.90
2019-04-28T20:51:11.166Z,6.35
2019-04-28T20:53:40.894Z,5.23
2019-04-28T20:56:10.758Z,5.90
2019-04-28T20:58:40.609Z,5.20
2019-04-28T21:01:10.516Z,5.12
2019-04-28T21:03:40.292Z,5.62
2019-04-28T21:06:11.160Z,5.12
2019-04-28T21:08:40.854Z,4.40
2019-04-28T21:11:10.638Z,5.60
2019-04-28T21:13:40.346Z,5.40
2019-04-28T21:16:10.195Z,5.67
2019-04-28T21:18:39.885Z,5.55
2019-04-28T21:21:09.712Z,6.43
2019-04-28T21:23:39.683Z,5.40
2019-04-28T21:26:09.374Z,5.63
2019-04-28T21:28:39.132Z,5.80
2019-04-28T21:31:08.955Z,5.75
2019-04-28T21:33:38.721Z,5.07
2019-04-28T21:36:08.436Z,5.22
2019-04-28T21:38:38.129Z,5.47
2019-04-28T21:41:07.854Z,5.62
2019-04-28T21:43:46.736Z,5.67
2019-04-28T21:46:22.680Z,5.63
2019-04-28T21:49:11.450Z,5.60
2019-04-28T21:51:41.167Z,5.53
2019-04-28T21:54:10.845Z,5.00
2019-04-28T21:56:40.544Z,4.67
2019-04-28T21:59:10.387Z,5.05
2019-04-28T22:01:40.509Z,4.40
2019-04-28T22:04:11.407Z,4.62
2019-04-28T22:06:41.316Z,4.35
2019-04-28T22:09:11.153Z,4.40
2019-04-28T22:11:42.564Z,5.00
2019-04-28T22:14:12.385Z,4.92
2019-04-28T22:16:42.187Z,4.90
2019-04-28T22:19:12.128Z,4.83
2019-04-28T22:21:41.829Z,4.50
2019-04-28T22:24:43.057Z,4.90
2019-04-28T22:27:14.724Z,5.03
2019-04-28T22:29:44.486Z,4.90
2019-04-28T22:32:16.149Z,4.92
2019-04-28T22:34:45.985Z,5.35
2019-04-28T22:37:15.702Z,5.20
2019-04-28T22:39:47.048Z,4.58
2019-04-28T22:42:18.074Z,5.20
2019-04-28T22:44:47.836Z,4.58
2019-04-28T22:47:17.632Z,4.97
2019-04-28T22:49:47.372Z,5.53
2019-04-28T22:52:17.188Z,5.63
2019-04-28T22:55:06.116Z,5.43
2019-04-28T22:57:45.100Z,5.33
2019-04-28T23:00:44.212Z,6.37
2019-04-28T23:03:21.253Z,7.00
2019-04-28T23:05:51.029Z,6.53
2019-04-28T23:08:20.912Z,6.90
2019-04-28T23:10:50.691Z,6.57
2019-04-28T23:13:20.637Z,7.57
2019-04-28T23:15:51.042Z,7.63
2019-04-28T23:18:21.290Z,7.85
2019-04-28T23:20:54.725Z,7.80
2019-04-28T23:23:24.597Z,9.28
2019-04-28T23:25:54.364Z,9.20
2019-04-28T23:28:24.065Z,8.70
2019-04-28T23:30:53.926Z,8.70
2019-04-28T23:33:23.629Z,9.73
2019-04-28T23:35:53.486Z,8.93
2019-04-28T23:38:23.187Z,10.05
2019-04-28T23:41:08.222Z,8.70
2019-04-28T23:43:37.918Z,9.00
2019-04-28T23:46:07.713Z,8.23
2019-04-28T23:48:37.397Z,9.13
2019-04-28T23:51:14.832Z,9.07
2019-04-28T23:54:00.098Z,8.47
2019-04-28T23:56:29.815Z,9.35
2019-04-28T23:58:59.595Z,7.12
